Tulsa, OK (74135)

11:42 PM CST on November 27, 2014 (GMT -0600)
36th and S Harvard | Change Station
CLOSE
Current Station
Personal Weather Station
Location: Tulsa, OK
Elevation: 748 ft
Nearby Weather Stations

Elev 748 ft 36.11 °N, 95.94 °W | Updated 12 minutes ago

Partly Cloudy
Partly Cloudy
40.3 °F
Feels Like 40 °F
N
0.0
Wind Variable Wind from North
Gusts 0.0 mph

Today
High -- | Low -- °F
--% Chance of Precip.
Yesterday
High -- | Low -- °F
Precip. -- in
7:12 AM 5:10 PM
Waxing Crescent, 36% visible
Pressure 30.33 in
Visibility 10.0 miles
Clouds Clear
Windchill 40 °F
Dew Point 29 °F
Humidity 63%
Rainfall 0.00 in
Snow Depth Not available.
UV 0 out of 12
Pollen .90 out of 12
Air Quality Not available.
Flu Activity Not available.
METAR KRVS 280453Z 16003KT 10SM CLR 03/M03 A3030 RMK AO2 SLP269 T00281033

More Conditions Fewer Conditions

Pressure 30.33 in
Visibility 10.0 miles
Clouds Clear
Windchill 40 °F
Dew Point 29 °F
Humidity 63%
Rainfall 0.00 in
Snow Depth Not available.
UV 0 out of 12
Pollen .90 out of 12
Air Quality Not available.
Flu Activity Not available.
METAR KRVS 280453Z 16003KT 10SM CLR 03/M03 A3030 RMK AO2 SLP269 T00281033

More Conditions Fewer Conditions

10-Day Weather Forecast

Almanac

Astronomy

Nov. 27, 2014 Rise Set
Actual Time
Civil Twilight
Nautical Twilight
Astronomical Twilight
Moon
Length of Visible Light
Length of Day
Tomorrow will be .
, % of the Moon is Illuminated

Today's Extremes

State Highs State Lows

Community

WunderPhotos

Upload Photos

1,774,195 photos uploaded!

WunderBlogs® & News

Nearby

Air Quality

  Air Quality AQ Index Pollutant
Not available.

Snow Depth

Station Depth Elevation

Earthquake Activity

City Distance Mag. Time & Date
Minimum magnitude displayed is 2.5.

Coastal Water Temperatures

Place Temperature

Nearby Weather Stations